sensor_id;sensor_type;location;lat;lon;timestamp;pressure;altitude;pressure_sealevel;temperature
73673;BMP280;61972;19.480;-99.240;2022-12-29T00:01:17;77674.59;;;22.03
73673;BMP280;61972;19.480;-99.240;2022-12-29T00:03:46;77670.91;;;22.02
73673;BMP280;61972;19.480;-99.240;2022-12-29T00:06:12;77672.00;;;22.03
73673;BMP280;61972;19.480;-99.240;2022-12-29T00:08:38;77679.81;;;22.03
73673;BMP280;61972;19.480;-99.240;2022-12-29T00:13:37;77687.06;;;22.03
73673;BMP280;61972;19.480;-99.240;2022-12-29T00:16:21;77678.69;;;22.02
73673;BMP280;61972;19.480;-99.240;2022-12-29T00:18:47;77683.91;;;22.02
73673;BMP280;61972;19.480;-99.240;2022-12-29T00:21:14;77684.47;;;22.03
73673;BMP280;61972;19.480;-99.240;2022-12-29T00:23:59;77682.78;;;22.01
73673;BMP280;61972;19.480;-99.240;2022-12-29T00:26:45;77690.56;;;22.01
73673;BMP280;61972;19.480;-99.240;2022-12-29T00:29:30;77689.44;;;22.00
73673;BMP280;61972;19.480;-99.240;2022-12-29T00:32:15;77689.44;;;22.00
73673;BMP280;61972;19.480;-99.240;2022-12-29T00:35:02;77693.56;;;21.99
73673;BMP280;61972;19.480;-99.240;2022-12-29T00:37:41;77695.59;;;21.98
73673;BMP280;61972;19.480;-99.240;2022-12-29T00:40:27;77703.41;;;21.98
73673;BMP280;61972;19.480;-99.240;2022-12-29T00:43:11;77701.72;;;21.97
73673;BMP280;61972;19.480;-99.240;2022-12-29T00:45:56;77713.59;;;21.96
73673;BMP280;61972;19.480;-99.240;2022-12-29T00:48:22;77712.13;;;21.97
73673;BMP280;61972;19.480;-99.240;2022-12-29T00:51:07;77714.53;;;21.94
73673;BMP280;61972;19.480;-99.240;2022-12-29T00:53:34;77717.69;;;21.95
73673;BMP280;61972;19.480;-99.240;2022-12-29T00:56:00;77724.38;;;21.94
73673;BMP280;61972;19.480;-99.240;2022-12-29T00:58:30;77721.78;;;21.94
73673;BMP280;61972;19.480;-99.240;2022-12-29T01:01:06;77733.66;;;21.93
73673;BMP280;61972;19.480;-99.240;2022-12-29T01:03:37;77732.53;;;21.92
73673;BMP280;61972;19.480;-99.240;2022-12-29T01:06:05;77732.53;;;21.92
73673;BMP280;61972;19.480;-99.240;2022-12-29T01:08:32;77741.81;;;21.91
73673;BMP280;61972;19.480;-99.240;2022-12-29T01:11:09;77743.31;;;21.90
73673;BMP280;61972;19.480;-99.240;2022-12-29T01:13:36;77740.69;;;21.90
73673;BMP280;61972;19.480;-99.240;2022-12-29T01:16:04;77740.69;;;21.90
73673;BMP280;61972;19.480;-99.240;2022-12-29T01:18:31;77745.91;;;21.90
73673;BMP280;61972;19.480;-99.240;2022-12-29T01:21:05;77742.16;;;21.89
73673;BMP280;61972;19.480;-99.240;2022-12-29T01:23:32;77744.22;;;21.88
73673;BMP280;61972;19.480;-99.240;2022-12-29T01:26:08;77750.91;;;21.87
73673;BMP280;61972;19.480;-99.240;2022-12-29T01:28:34;77751.81;;;21.86
73673;BMP280;61972;19.480;-99.240;2022-12-29T01:31:01;77751.81;;;21.86
73673;BMP280;61972;19.480;-99.240;2022-12-29T01:33:27;77755.88;;;21.84
73673;BMP280;61972;19.480;-99.240;2022-12-29T01:35:53;77756.81;;;21.83
73673;BMP280;61972;19.480;-99.240;2022-12-29T01:38:19;77762.94;;;21.81
73673;BMP280;61972;19.480;-99.240;2022-12-29T01:40:46;77761.81;;;21.80
73673;BMP280;61972;19.480;-99.240;2022-12-29T01:43:13;77764.78;;;21.78
73673;BMP280;61972;19.480;-99.240;2022-12-29T01:45:48;77767.75;;;21.76
73673;BMP280;61972;19.480;-99.240;2022-12-29T01:48:16;77762.53;;;21.76
73673;BMP280;61972;19.480;-99.240;2022-12-29T01:50:50;77766.97;;;21.73
73673;BMP280;61972;19.480;-99.240;2022-12-29T01:53:36;77769.38;;;21.71
73673;BMP280;61972;19.480;-99.240;2022-12-29T01:56:06;77770.31;;;21.69
73673;BMP280;61972;19.480;-99.240;2022-12-29T01:58:38;77774.38;;;21.68
73673;BMP280;61972;19.480;-99.240;2022-12-29T02:01:06;77777.34;;;21.66
73673;BMP280;61972;19.480;-99.240;2022-12-29T02:03:32;77780.28;;;21.64
73673;BMP280;61972;19.480;-99.240;2022-12-29T02:06:16;77782.34;;;21.63
73673;BMP280;61972;19.480;-99.240;2022-12-29T02:08:46;77785.31;;;21.61
73673;BMP280;61972;19.480;-99.240;2022-12-29T02:11:13;77780.44;;;21.59
73673;BMP280;61972;19.480;-99.240;2022-12-29T02:13:39;77781.38;;;21.58
73673;BMP280;61972;19.480;-99.240;2022-12-29T02:16:32;77777.66;;;21.57
73673;BMP280;61972;19.480;-99.240;2022-12-29T02:22:34;77777.44;;;21.54
73673;BMP280;61972;19.480;-99.240;2022-12-29T02:35:42;77791.72;;;21.51
73673;BMP280;61972;19.480;-99.240;2022-12-29T02:38:51;77793.53;;;21.47
73673;BMP280;61972;19.480;-99.240;2022-12-29T02:44:16;77784.63;;;21.46
73673;BMP280;61972;19.480;-99.240;2022-12-29T02:46:53;77793.53;;;21.47
73673;BMP280;61972;19.480;-99.240;2022-12-29T02:49:38;77786.66;;;21.46
73673;BMP280;61972;19.480;-99.240;2022-12-29T02:52:21;77796.50;;;21.45
73673;BMP280;61972;19.480;-99.240;2022-12-29T02:54:49;77797.06;;;21.46
73673;BMP280;61972;19.480;-99.240;2022-12-29T02:59:57;77805.78;;;21.44
73673;BMP280;61972;19.480;-99.240;2022-12-29T03:11:00;77829.53;;;21.42
73673;BMP280;61972;19.480;-99.240;2022-12-29T03:13:49;77821.72;;;21.42
73673;BMP280;61972;19.480;-99.240;2022-12-29T03:16:53;77827.28;;;21.40
73673;BMP280;61972;19.480;-99.240;2022-12-29T03:19:49;77815.75;;;21.39
73673;BMP280;61972;19.480;-99.240;2022-12-29T03:22:21;77815.75;;;21.39
73673;BMP280;61972;19.480;-99.240;2022-12-29T03:27:52;77818.72;;;21.37
73673;BMP280;61972;19.480;-99.240;2022-12-29T03:30:19;77822.25;;;21.36
73673;BMP280;61972;19.480;-99.240;2022-12-29T03:32:49;77832.63;;;21.36
73673;BMP280;61972;19.480;-99.240;2022-12-29T03:35:18;77852.28;;;21.35
73673;BMP280;61972;19.480;-99.240;2022-12-29T03:37:53;77861.56;;;21.34
73673;BMP280;61972;19.480;-99.240;2022-12-29T03:40:21;77855.78;;;21.33
73673;BMP280;61972;19.480;-99.240;2022-12-29T03:42:47;77856.72;;;21.32
73673;BMP280;61972;19.480;-99.240;2022-12-29T03:45:14;77855.03;;;21.30
73673;BMP280;61972;19.480;-99.240;2022-12-29T03:47:40;77857.06;;;21.29
73673;BMP280;61972;19.480;-99.240;2022-12-29T03:50:07;77864.84;;;21.29
73673;BMP280;61972;19.480;-99.240;2022-12-29T03:52:34;77862.25;;;21.29
73673;BMP280;61972;19.480;-99.240;2022-12-29T03:55:00;77868.38;;;21.28
73673;BMP280;61972;19.480;-99.240;2022-12-29T03:57:26;77875.06;;;21.27
73673;BMP280;61972;19.480;-99.240;2022-12-29T03:59:52;77882.84;;;21.27
73673;BMP280;61972;19.480;-99.240;2022-12-29T04:02:18;77881.72;;;21.26
73673;BMP280;61972;19.480;-99.240;2022-12-29T04:04:44;77889.50;;;21.26
73673;BMP280;61972;19.480;-99.240;2022-12-29T04:07:10;77887.28;;;21.24
73673;BMP280;61972;19.480;-99.240;2022-12-29T04:09:37;77893.03;;;21.24
73673;BMP280;61972;19.480;-99.240;2022-12-29T04:12:03;77891.34;;;21.23
73673;BMP280;61972;19.480;-99.240;2022-12-29T04:14:29;77891.69;;;21.21
73673;BMP280;61972;19.480;-99.240;2022-12-29T04:16:55;77885.00;;;21.22
73673;BMP280;61972;19.480;-99.240;2022-12-29T04:19:21;77883.88;;;21.21
73673;BMP280;61972;19.480;-99.240;2022-12-29T04:21:47;77887.41;;;21.19
73673;BMP280;61972;19.480;-99.240;2022-12-29T04:24:13;77878.50;;;21.18
73673;BMP280;61972;19.480;-99.240;2022-12-29T04:26:40;77883.13;;;21.18
73673;BMP280;61972;19.480;-99.240;2022-12-29T04:29:07;77885.72;;;21.18
73673;BMP280;61972;19.480;-99.240;2022-12-29T04:31:33;77888.09;;;21.15
73673;BMP280;61972;19.480;-99.240;2022-12-29T04:33:59;77891.63;;;21.14
73673;BMP280;61972;19.480;-99.240;2022-12-29T04:36:26;77885.84;;;21.13
73673;BMP280;61972;19.480;-99.240;2022-12-29T04:38:52;77880.09;;;21.12
73673;BMP280;61972;19.480;-99.240;2022-12-29T04:41:18;77880.47;;;21.10
73673;BMP280;61972;19.480;-99.240;2022-12-29T04:43:44;77872.66;;;21.10
73673;BMP280;61972;19.480;-99.240;2022-12-29T04:46:10;77868.94;;;21.09
73673;BMP280;61972;19.480;-99.240;2022-12-29T04:48:36;77870.41;;;21.08
73673;BMP280;61972;19.480;-99.240;2022-12-29T04:51:02;77864.09;;;21.07
73673;BMP280;61972;19.480;-99.240;2022-12-29T04:53:28;77869.28;;;21.07
73673;BMP280;61972;19.480;-99.240;2022-12-29T04:55:55;77872.81;;;21.06
73673;BMP280;61972;19.480;-99.240;2022-12-29T04:58:21;77864.81;;;21.03
73673;BMP280;61972;19.480;-99.240;2022-12-29T05:00:47;77864.81;;;21.03
73673;BMP280;61972;19.480;-99.240;2022-12-29T05:03:14;77861.66;;;21.03
73673;BMP280;61972;19.480;-99.240;2022-12-29T05:05:40;77861.09;;;21.02
73673;BMP280;61972;19.480;-99.240;2022-12-29T05:08:07;77872.38;;;21.01
73673;BMP280;61972;19.480;-99.240;2022-12-29T05:10:33;77866.03;;;21.00
73673;BMP280;61972;19.480;-99.240;2022-12-29T05:12:59;77864.97;;;20.99
73673;BMP280;61972;19.480;-99.240;2022-12-29T05:15:25;77869.56;;;20.98
73673;BMP280;61972;19.480;-99.240;2022-12-29T05:17:51;77870.50;;;20.97
73673;BMP280;61972;19.480;-99.240;2022-12-29T05:20:18;77875.09;;;20.96
73673;BMP280;61972;19.480;-99.240;2022-12-29T05:22:44;77868.25;;;20.94
73673;BMP280;61972;19.480;-99.240;2022-12-29T05:25:10;77864.53;;;20.93
73673;BMP280;61972;19.480;-99.240;2022-12-29T05:27:36;77865.06;;;20.94
73673;BMP280;61972;19.480;-99.240;2022-12-29T05:30:06;77868.03;;;20.92
73673;BMP280;61972;19.480;-99.240;2022-12-29T05:32:32;77866.34;;;20.90
73673;BMP280;61972;19.480;-99.240;2022-12-29T05:34:58;77856.88;;;20.89
73673;BMP280;61972;19.480;-99.240;2022-12-29T05:37:24;77861.50;;;20.88
73673;BMP280;61972;19.480;-99.240;2022-12-29T05:39:50;77860.34;;;20.87
73673;BMP280;61972;19.480;-99.240;2022-12-29T05:42:16;77854.59;;;20.87
73673;BMP280;61972;19.480;-99.240;2022-12-29T05:44:43;77858.69;;;20.86
73673;BMP280;61972;19.480;-99.240;2022-12-29T05:47:09;77848.66;;;20.84
73673;BMP280;61972;19.480;-99.240;2022-12-29T05:49:35;77856.78;;;20.82
73673;BMP280;61972;19.480;-99.240;2022-12-29T05:52:01;77856.25;;;20.81
73673;BMP280;61972;19.480;-99.240;2022-12-29T05:54:27;77856.25;;;20.81
73673;BMP280;61972;19.480;-99.240;2022-12-29T05:56:54;77860.84;;;20.81
73673;BMP280;61972;19.480;-99.240;2022-12-29T05:59:20;77858.03;;;20.78
73673;BMP280;61972;19.480;-99.240;2022-12-29T06:01:46;77871.00;;;20.78
73673;BMP280;61972;19.480;-99.240;2022-12-29T06:04:12;77872.50;;;20.77
73673;BMP280;61972;19.480;-99.240;2022-12-29T06:06:38;77868.78;;;20.76
73673;BMP280;61972;19.480;-99.240;2022-12-29T06:09:05;77875.44;;;20.75
73673;BMP280;61972;19.480;-99.240;2022-12-29T06:11:31;77873.19;;;20.73
73673;BMP280;61972;19.480;-99.240;2022-12-29T06:13:57;77861.69;;;20.72
73673;BMP280;61972;19.480;-99.240;2022-12-29T06:16:23;77861.13;;;20.71
73673;BMP280;61972;19.480;-99.240;2022-12-29T06:18:49;77859.44;;;20.70
73673;BMP280;61972;19.480;-99.240;2022-12-29T06:21:15;77865.53;;;20.68
73673;BMP280;61972;19.480;-99.240;2022-12-29T06:23:41;77862.38;;;20.68
73673;BMP280;61972;19.480;-99.240;2022-12-29T06:26:07;77870.50;;;20.66
73673;BMP280;61972;19.480;-99.240;2022-12-29T06:28:33;77869.41;;;20.65
73673;BMP280;61972;19.480;-99.240;2022-12-29T06:31:00;77869.97;;;20.65
73673;BMP280;61972;19.480;-99.240;2022-12-29T06:33:29;77869.75;;;20.63
73673;BMP280;61972;19.480;-99.240;2022-12-29T06:35:55;77871.78;;;20.62
73673;BMP280;61972;19.480;-99.240;2022-12-29T06:38:21;77865.47;;;20.61
73673;BMP280;61972;19.480;-99.240;2022-12-29T06:40:47;77863.78;;;20.59
73673;BMP280;61972;19.480;-99.240;2022-12-29T06:43:13;77862.66;;;20.58
73673;BMP280;61972;19.480;-99.240;2022-12-29T06:45:39;77855.75;;;20.57
73673;BMP280;61972;19.480;-99.240;2022-12-29T06:48:06;77859.28;;;20.55
73673;BMP280;61972;19.480;-99.240;2022-12-29T06:50:32;77853.53;;;20.55
73673;BMP280;61972;19.480;-99.240;2022-12-29T06:53:01;77852.41;;;20.54
73673;BMP280;61972;19.480;-99.240;2022-12-29T06:55:27;77855.38;;;20.52
73673;BMP280;61972;19.480;-99.240;2022-12-29T06:57:55;77847.91;;;20.50
73673;BMP280;61972;19.480;-99.240;2022-12-29T07:00:23;77846.78;;;20.49
73673;BMP280;61972;19.480;-99.240;2022-12-29T07:02:50;77840.47;;;20.48
73673;BMP280;61972;19.480;-99.240;2022-12-29T07:05:16;77846.00;;;20.46
73673;BMP280;61972;19.480;-99.240;2022-12-29T07:07:42;77842.28;;;20.45
73673;BMP280;61972;19.480;-99.240;2022-12-29T07:10:09;77846.91;;;20.44
73673;BMP280;61972;19.480;-99.240;2022-12-29T07:12:35;77838.34;;;20.41
73673;BMP280;61972;19.480;-99.240;2022-12-29T07:15:01;77850.19;;;20.40
73673;BMP280;61972;19.480;-99.240;2022-12-29T07:17:27;77840.19;;;20.38
73673;BMP280;61972;19.480;-99.240;2022-12-29T07:19:53;77843.69;;;20.36
73673;BMP280;61972;19.480;-99.240;2022-12-29T07:22:20;77838.50;;;20.36
73673;BMP280;61972;19.480;-99.240;2022-12-29T07:24:46;77838.84;;;20.34
73673;BMP280;61972;19.480;-99.240;2022-12-29T07:27:12;77835.13;;;20.33
73673;BMP280;61972;19.480;-99.240;2022-12-29T07:29:38;77839.75;;;20.33
73673;BMP280;61972;19.480;-99.240;2022-12-29T07:32:04;77832.31;;;20.31
73673;BMP280;61972;19.480;-99.240;2022-12-29T07:34:30;77836.38;;;20.30
73673;BMP280;61972;19.480;-99.240;2022-12-29T07:36:56;77834.69;;;20.28
73673;BMP280;61972;19.480;-99.240;2022-12-29T07:39:23;77829.88;;;20.26
73673;BMP280;61972;19.480;-99.240;2022-12-29T07:41:49;77836.50;;;20.25
73673;BMP280;61972;19.480;-99.240;2022-12-29T07:44:15;77836.50;;;20.25
73673;BMP280;61972;19.480;-99.240;2022-12-29T07:46:41;77829.63;;;20.23
73673;BMP280;61972;19.480;-99.240;2022-12-29T07:49:07;77828.50;;;20.22
73673;BMP280;61972;19.480;-99.240;2022-12-29T07:51:33;77821.63;;;20.21
73673;BMP280;61972;19.480;-99.240;2022-12-29T07:53:59;77815.88;;;20.20
73673;BMP280;61972;19.480;-99.240;2022-12-29T07:56:26;77824.56;;;20.19
73673;BMP280;61972;19.480;-99.240;2022-12-29T07:58:53;77814.53;;;20.17
73673;BMP280;61972;19.480;-99.240;2022-12-29T08:01:19;77816.00;;;20.16
73673;BMP280;61972;19.480;-99.240;2022-12-29T08:03:45;77809.69;;;20.15
73673;BMP280;61972;19.480;-99.240;2022-12-29T08:06:11;77813.75;;;20.14
73673;BMP280;61972;19.480;-99.240;2022-12-29T08:08:37;77812.66;;;20.13
73673;BMP280;61972;19.480;-99.240;2022-12-29T08:11:04;77814.13;;;20.12
73673;BMP280;61972;19.480;-99.240;2022-12-29T08:13:30;77811.84;;;20.10
73673;BMP280;61972;19.480;-99.240;2022-12-29T08:15:58;77795.16;;;20.09
73673;BMP280;61972;19.480;-99.240;2022-12-29T08:18:24;77780.53;;;20.07
73673;BMP280;61972;19.480;-99.240;2022-12-29T08:20:50;77791.81;;;20.05
73673;BMP280;61972;19.480;-99.240;2022-12-29T08:23:17;77791.81;;;20.05
73673;BMP280;61972;19.480;-99.240;2022-12-29T08:25:43;77781.78;;;20.03
73673;BMP280;61972;19.480;-99.240;2022-12-29T08:28:09;77776.03;;;20.03
73673;BMP280;61972;19.480;-99.240;2022-12-29T08:30:35;77771.19;;;20.01
73673;BMP280;61972;19.480;-99.240;2022-12-29T08:33:02;77770.06;;;20.00
73673;BMP280;61972;19.480;-99.240;2022-12-29T08:35:28;77763.22;;;19.98
73673;BMP280;61972;19.480;-99.240;2022-12-29T08:37:54;77766.34;;;19.99
73673;BMP280;61972;19.480;-99.240;2022-12-29T08:40:20;77756.91;;;19.97
73673;BMP280;61972;19.480;-99.240;2022-12-29T08:42:46;77748.00;;;19.96
73673;BMP280;61972;19.480;-99.240;2022-12-29T08:45:12;77753.19;;;19.96
73673;BMP280;61972;19.480;-99.240;2022-12-29T08:47:38;77756.13;;;19.94
73673;BMP280;61972;19.480;-99.240;2022-12-29T08:50:05;77760.72;;;19.94
73673;BMP280;61972;19.480;-99.240;2022-12-29T08:52:31;77756.44;;;19.92
73673;BMP280;61972;19.480;-99.240;2022-12-29T08:54:57;77753.31;;;19.92
73673;BMP280;61972;19.480;-99.240;2022-12-29T08:57:23;77752.72;;;19.91
73673;BMP280;61972;19.480;-99.240;2022-12-29T08:59:50;77752.72;;;19.91
73673;BMP280;61972;19.480;-99.240;2022-12-29T09:02:16;77756.81;;;19.90
73673;BMP280;61972;19.480;-99.240;2022-12-29T09:04:42;77762.00;;;19.90
73673;BMP280;61972;19.480;-99.240;2022-12-29T09:07:08;77759.72;;;19.88
73673;BMP280;61972;19.480;-99.240;2022-12-29T09:09:34;77760.84;;;19.89
73673;BMP280;61972;19.480;-99.240;2022-12-29T09:12:01;77763.78;;;19.87
73673;BMP280;61972;19.480;-99.240;2022-12-29T09:14:27;77752.34;;;19.86
73673;BMP280;61972;19.480;-99.240;2022-12-29T09:16:53;77762.69;;;19.86
73673;BMP280;61972;19.480;-99.240;2022-12-29T09:19:38;77757.84;;;19.84
73673;BMP280;61972;19.480;-99.240;2022-12-29T09:22:04;77765.03;;;19.83
73673;BMP280;61972;19.480;-99.240;2022-12-29T09:24:30;77759.31;;;19.83
73673;BMP280;61972;19.480;-99.240;2022-12-29T09:26:56;77753.56;;;19.82
73673;BMP280;61972;19.480;-99.240;2022-12-29T09:29:22;77765.41;;;19.81
73673;BMP280;61972;19.480;-99.240;2022-12-29T09:31:49;77750.75;;;19.80
73673;BMP280;61972;19.480;-99.240;2022-12-29T09:34:15;77745.56;;;19.80
73673;BMP280;61972;19.480;-99.240;2022-12-29T09:36:41;77744.44;;;19.79
73673;BMP280;61972;19.480;-99.240;2022-12-29T09:39:08;77747.03;;;19.79
73673;BMP280;61972;19.480;-99.240;2022-12-29T09:41:48;77752.56;;;19.77
73673;BMP280;61972;19.480;-99.240;2022-12-29T09:44:23;77762.38;;;19.76
73673;BMP280;61972;19.480;-99.240;2022-12-29T09:46:53;77752.91;;;19.75
73673;BMP280;61972;19.480;-99.240;2022-12-29T09:49:50;77753.28;;;19.73
73673;BMP280;61972;19.480;-99.240;2022-12-29T09:52:25;77732.53;;;19.73
73673;BMP280;61972;19.480;-99.240;2022-12-29T09:57:56;77734.91;;;19.70
73673;BMP280;61972;19.480;-99.240;2022-12-29T10:00:41;77733.75;;;19.69
73673;BMP280;61972;19.480;-99.240;2022-12-29T10:03:20;77742.47;;;19.67
73673;BMP280;61972;19.480;-99.240;2022-12-29T10:06:03;77741.34;;;19.66
73673;BMP280;61972;19.480;-99.240;2022-12-29T10:22:10;77720.50;;;19.59
73673;BMP280;61972;19.480;-99.240;2022-12-29T10:24:41;77720.88;;;19.57
73673;BMP280;61972;19.480;-99.240;2022-12-29T10:27:13;77730.09;;;19.56
73673;BMP280;61972;19.480;-99.240;2022-12-29T10:29:48;77728.41;;;19.55
73673;BMP280;61972;19.480;-99.240;2022-12-29T10:32:31;77740.81;;;19.54
73673;BMP280;61972;19.480;-99.240;2022-12-29T10:35:05;77753.22;;;19.54
73673;BMP280;61972;19.480;-99.240;2022-12-29T10:37:49;77741.16;;;19.52
73673;BMP280;61972;19.480;-99.240;2022-12-29T10:42:57;77749.81;;;19.50
73673;BMP280;61972;19.480;-99.240;2022-12-29T10:45:29;77743.53;;;19.49
73673;BMP280;61972;19.480;-99.240;2022-12-29T10:48:08;77741.81;;;19.48
73673;BMP280;61972;19.480;-99.240;2022-12-29T10:50:36;77747.00;;;19.48
73673;BMP280;61972;19.480;-99.240;2022-12-29T10:53:17;77755.69;;;19.46
73673;BMP280;61972;19.480;-99.240;2022-12-29T10:55:45;77749.41;;;19.45
73673;BMP280;61972;19.480;-99.240;2022-12-29T10:58:13;77745.69;;;19.44
73673;BMP280;61972;19.480;-99.240;2022-12-29T11:00:41;77745.13;;;19.44
73673;BMP280;61972;19.480;-99.240;2022-12-29T11:05:49;77757.28;;;19.41
73673;BMP280;61972;19.480;-99.240;2022-12-29T11:08:23;77750.97;;;19.40
73673;BMP280;61972;19.480;-99.240;2022-12-29T11:11:04;77760.22;;;19.39
73673;BMP280;61972;19.480;-99.240;2022-12-29T11:13:33;77764.84;;;19.38
73673;BMP280;61972;19.480;-99.240;2022-12-29T11:15:59;77761.66;;;19.38
73673;BMP280;61972;19.480;-99.240;2022-12-29T11:18:35;77765.72;;;19.37
73673;BMP280;61972;19.480;-99.240;2022-12-29T11:21:05;77764.06;;;19.35
73673;BMP280;61972;19.480;-99.240;2022-12-29T11:23:40;77772.72;;;19.33
73673;BMP280;61972;19.480;-99.240;2022-12-29T11:28:45;77779.72;;;19.30
73673;BMP280;61972;19.480;-99.240;2022-12-29T11:31:16;77779.72;;;19.30
73673;BMP280;61972;19.480;-99.240;2022-12-29T11:33:42;77776.00;;;19.29
73673;BMP280;61972;19.480;-99.240;2022-12-29T11:36:13;77778.00;;;19.29
73673;BMP280;61972;19.480;-99.240;2022-12-29T11:38:45;77780.97;;;19.27
73673;BMP280;61972;19.480;-99.240;2022-12-29T11:41:13;77782.06;;;19.28
73673;BMP280;61972;19.480;-99.240;2022-12-29T11:43:45;77784.44;;;19.25
73673;BMP280;61972;19.480;-99.240;2022-12-29T11:46:33;77783.31;;;19.24
73673;BMP280;61972;19.480;-99.240;2022-12-29T11:49:00;77780.72;;;19.24
73673;BMP280;61972;19.480;-99.240;2022-12-29T11:51:39;77775.91;;;19.22
73673;BMP280;61972;19.480;-99.240;2022-12-29T11:54:29;77780.84;;;19.20
73673;BMP280;61972;19.480;-99.240;2022-12-29T11:56:57;77787.16;;;19.21
73673;BMP280;61972;19.480;-99.240;2022-12-29T11:59:36;77782.88;;;19.19
73673;BMP280;61972;19.480;-99.240;2022-12-29T12:04:56;77791.88;;;19.15
73673;BMP280;61972;19.480;-99.240;2022-12-29T12:07:44;77792.78;;;19.14
73673;BMP280;61972;19.480;-99.240;2022-12-29T12:10:29;77791.66;;;19.13
73673;BMP280;61972;19.480;-99.240;2022-12-29T12:16:00;77793.44;;;19.10
73673;BMP280;61972;19.480;-99.240;2022-12-29T12:18:32;77797.50;;;19.09
73673;BMP280;61972;19.480;-99.240;2022-12-29T12:24:11;77805.06;;;19.06
73673;BMP280;61972;19.480;-99.240;2022-12-29T12:30:23;77802.25;;;19.04
73673;BMP280;61972;19.480;-99.240;2022-12-29T12:32:54;77806.84;;;19.03
73673;BMP280;61972;19.480;-99.240;2022-12-29T12:35:44;77810.34;;;19.02
73673;BMP280;61972;19.480;-99.240;2022-12-29T12:41:48;77808.44;;;18.97
73673;BMP280;61972;19.480;-99.240;2022-12-29T12:44:39;77820.25;;;18.96
73673;BMP280;61972;19.480;-99.240;2022-12-29T12:47:39;77818.03;;;18.94
73673;BMP280;61972;19.480;-99.240;2022-12-29T12:53:17;77814.63;;;18.91
73673;BMP280;61972;19.480;-99.240;2022-12-29T12:56:09;77817.56;;;18.89
73673;BMP280;61972;19.480;-99.240;2022-12-29T12:58:53;77824.75;;;18.89
73673;BMP280;61972;19.480;-99.240;2022-12-29T13:01:38;77821.59;;;18.88
73673;BMP280;61972;19.480;-99.240;2022-12-29T13:24:01;77850.59;;;18.77
73673;BMP280;61972;19.480;-99.240;2022-12-29T13:26:59;77849.47;;;18.76
73673;BMP280;61972;19.480;-99.240;2022-12-29T13:32:14;77862.19;;;18.73
73673;BMP280;61972;19.480;-99.240;2022-12-29T13:37:20;77869.38;;;18.73
73673;BMP280;61972;19.480;-99.240;2022-12-29T13:39:52;77870.84;;;18.72
73673;BMP280;61972;19.480;-99.240;2022-12-29T13:42:21;77878.94;;;18.70
73673;BMP280;61972;19.480;-99.240;2022-12-29T13:44:59;77873.22;;;18.69
73673;BMP280;61972;19.480;-99.240;2022-12-29T13:50:19;77872.63;;;18.69
73673;BMP280;61972;19.480;-99.240;2022-12-29T13:53:08;77875.56;;;18.67
73673;BMP280;61972;19.480;-99.240;2022-12-29T13:55:53;77868.69;;;18.65
73673;BMP280;61972;19.480;-99.240;2022-12-29T14:03:50;77862.38;;;18.64
73673;BMP280;61972;19.480;-99.240;2022-12-29T14:08:46;77867.88;;;18.62
73673;BMP280;61972;19.480;-99.240;2022-12-29T14:11:15;77876.22;;;18.62
73673;BMP280;61972;19.480;-99.240;2022-12-29T14:13:46;77875.66;;;18.62
73673;BMP280;61972;19.480;-99.240;2022-12-29T14:16:29;77878.22;;;18.62
73673;BMP280;61972;19.480;-99.240;2022-12-29T14:19:10;77884.91;;;18.61
73673;BMP280;61972;19.480;-99.240;2022-12-29T14:21:37;77890.06;;;18.61
73673;BMP280;61972;19.480;-99.240;2022-12-29T14:26:58;77875.44;;;18.59
73673;BMP280;61972;19.480;-99.240;2022-12-29T14:31:51;77888.38;;;18.59
73673;BMP280;61972;19.480;-99.240;2022-12-29T14:42:19;77895.00;;;18.58
73673;BMP280;61972;19.480;-99.240;2022-12-29T14:45:23;77899.03;;;18.57
73673;BMP280;61972;19.480;-99.240;2022-12-29T14:47:52;77906.78;;;18.57
73673;BMP280;61972;19.480;-99.240;2022-12-29T14:50:24;77900.50;;;18.56
73673;BMP280;61972;19.480;-99.240;2022-12-29T14:52:54;77905.69;;;18.56
73673;BMP280;61972;19.480;-99.240;2022-12-29T14:58:51;77904.53;;;18.55
73673;BMP280;61972;19.480;-99.240;2022-12-29T15:01:45;77912.31;;;18.55
73673;BMP280;61972;19.480;-99.240;2022-12-29T15:04:23;77913.78;;;18.54
73673;BMP280;61972;19.480;-99.240;2022-12-29T15:06:51;77918.94;;;18.54
73673;BMP280;61972;19.480;-99.240;2022-12-29T15:11:52;77926.72;;;18.54
73673;BMP280;61972;19.480;-99.240;2022-12-29T15:14:34;77916.69;;;18.52
73673;BMP280;61972;19.480;-99.240;2022-12-29T15:17:01;77918.94;;;18.54
73673;BMP280;61972;19.480;-99.240;2022-12-29T15:19:35;77916.09;;;18.52
73673;BMP280;61972;19.480;-99.240;2022-12-29T15:22:02;77924.13;;;18.54
73673;BMP280;61972;19.480;-99.240;2022-12-29T15:24:28;77927.03;;;18.52
73673;BMP280;61972;19.480;-99.240;2022-12-29T15:26:55;77916.69;;;18.52
73673;BMP280;61972;19.480;-99.240;2022-12-29T15:29:32;77923.34;;;18.51
73673;BMP280;61972;19.480;-99.240;2022-12-29T15:34:44;77927.03;;;18.52
73673;BMP280;61972;19.480;-99.240;2022-12-29T15:37:21;77929.03;;;18.52
73673;BMP280;61972;19.480;-99.240;2022-12-29T15:39:48;77928.16;;;18.53
73673;BMP280;61972;19.480;-99.240;2022-12-29T15:42:57;77929.63;;;18.52
73673;BMP280;61972;19.480;-99.240;2022-12-29T15:45:18;77931.63;;;18.52
73673;BMP280;61972;19.480;-99.240;2022-12-29T15:47:46;77932.19;;;18.52
73673;BMP280;61972;19.480;-99.240;2022-12-29T15:50:27;77927.03;;;18.52
73673;BMP280;61972;19.480;-99.240;2022-12-29T15:52:54;77928.16;;;18.53
73673;BMP280;61972;19.480;-99.240;2022-12-29T15:55:41;77932.19;;;18.52
73673;BMP280;61972;19.480;-99.240;2022-12-29T15:58:25;77931.09;;;18.51
73673;BMP280;61972;19.480;-99.240;2022-12-29T16:00:57;77927.94;;;18.51
73673;BMP280;61972;19.480;-99.240;2022-12-29T16:03:25;77925.91;;;18.51
73673;BMP280;61972;19.480;-99.240;2022-12-29T16:06:06;77929.97;;;18.50
73673;BMP280;61972;19.480;-99.240;2022-12-29T16:08:39;77927.94;;;18.51
73673;BMP280;61972;19.480;-99.240;2022-12-29T16:11:22;77924.78;;;18.50
73673;BMP280;61972;19.480;-99.240;2022-12-29T16:13:51;77920.75;;;18.51
73673;BMP280;61972;19.480;-99.240;2022-12-29T16:16:32;77911.28;;;18.50
73673;BMP280;61972;19.480;-99.240;2022-12-29T16:19:06;77920.75;;;18.51
73673;BMP280;61972;19.480;-99.240;2022-12-29T16:21:35;77920.41;;;18.53